Time;durP1;ratioP1;P1;durP2;ratioP2;P2;SDS_P1;SDS_P2;PMS_P1;PMS_P2;Temp;Humidity;BMP_temperature;BMP_pressure;BME280_temperature;BME280_humidity;BME280_pressure;Samples;Min_cycle;Max_cycle;Signal;HPM_P1;HPM_P2
2021/04/16 00:00:11;;;;;;;12.05;7.28;;;;;;;0.67;55.36;93066.59;2034938;70;20172;-70
2021/04/16 00:02:37;;;;;;;11.88;6.93;;;;;;;0.72;55.31;93071.28;2034590;70;20220;-70
2021/04/16 00:05:04;;;;;;;12.48;7.35;;;;;;;0.74;56.13;93066.69;2034885;70;20155;-70
2021/04/16 00:07:30;;;;;;;11.90;7.63;;;;;;;0.69;56.38;93067.56;2034468;70;20148;-70
2021/04/16 00:09:55;;;;;;;10.73;7.00;;;;;;;0.70;56.25;93065.53;2035039;70;20182;-71
2021/04/16 00:12:21;;;;;;;11.10;7.10;;;;;;;0.82;55.55;93060.47;2034829;70;20271;-70
2021/04/16 00:14:47;;;;;;;11.27;6.85;;;;;;;0.63;55.85;93055.84;2034877;70;20243;-70
2021/04/16 00:17:12;;;;;;;13.75;7.38;;;;;;;0.59;55.67;93052.66;2035149;70;20532;-68
2021/04/16 00:19:38;;;;;;;11.10;6.78;;;;;;;0.72;55.34;93052.63;2034411;70;20244;-70
2021/04/16 00:22:05;;;;;;;10.48;7.30;;;;;;;0.89;56.21;93043.91;2035071;70;20152;-71
2021/04/16 00:24:31;;;;;;;12.57;7.20;;;;;;;1.08;54.93;93046.50;2034925;70;20144;-71
2021/04/16 00:26:56;;;;;;;11.20;7.50;;;;;;;0.65;56.60;93041.47;2034455;70;20174;-69
2021/04/16 00:29:22;;;;;;;10.43;7.10;;;;;;;0.91;55.81;93035.78;2034935;70;20164;-70
2021/04/16 00:31:50;;;;;;;11.35;7.00;;;;;;;0.84;56.16;93039.25;2034970;70;20513;-69
2021/04/16 00:34:18;;;;;;;10.52;7.07;;;;;;;0.94;56.32;93037.50;2034390;70;20204;-70
2021/04/16 00:36:44;;;;;;;11.13;7.18;;;;;;;0.90;57.48;93025.25;2034877;70;20155;-70
2021/04/16 00:39:10;;;;;;;12.93;7.30;;;;;;;0.82;56.62;93027.94;2034928;70;20152;-70
2021/04/16 00:41:36;;;;;;;11.80;7.03;;;;;;;0.80;56.62;93029.78;2034911;70;20254;-71
2021/04/16 00:44:03;;;;;;;10.98;7.15;;;;;;;0.77;56.52;93024.03;2034799;70;20555;-71
2021/04/16 00:46:45;;;;;;;11.45;7.10;;;;;;;0.82;57.54;93027.94;2034755;70;20156;-70
2021/04/16 00:49:28;;;;;;;10.60;7.45;;;;;;;0.85;56.48;93021.34;2034788;70;20157;-70
2021/04/16 00:51:56;;;;;;;10.60;7.10;;;;;;;0.79;57.18;93011.69;2034785;70;21008;-71
2021/04/16 00:54:26;;;;;;;11.00;6.43;;;;;;;0.86;56.00;93016.53;2034665;70;20164;-70
2021/04/16 00:56:53;;;;;;;12.77;7.05;;;;;;;0.86;56.47;93019.31;2034803;70;20540;-70
2021/04/16 00:59:23;;;;;;;13.32;7.15;;;;;;;0.81;56.14;93011.88;2034569;70;20146;-71
2021/04/16 01:01:49;;;;;;;11.30;7.15;;;;;;;0.76;56.14;93016.25;2034564;70;20167;-70
2021/04/16 01:04:15;;;;;;;10.20;6.72;;;;;;;0.80;56.90;93010.38;2036761;70;20140;-71
2021/04/16 01:06:41;;;;;;;11.70;6.97;;;;;;;0.93;56.89;93011.06;2034872;70;20652;-71
2021/04/16 01:09:08;;;;;;;10.98;7.05;;;;;;;0.94;56.83;93004.22;2034859;70;20168;-70
2021/04/16 01:11:34;;;;;;;11.68;6.95;;;;;;;0.87;56.66;93007.69;2034911;70;20159;-71
2021/04/16 01:14:02;;;;;;;11.70;7.57;;;;;;;0.76;57.03;93013.50;2034866;70;20148;-71
2021/04/16 01:16:30;;;;;;;14.85;8.40;;;;;;;0.93;56.41;93007.56;2034686;70;20156;-71
2021/04/16 01:19:02;;;;;;;12.10;8.07;;;;;;;0.83;56.48;93007.28;2034801;70;20606;-71
2021/04/16 01:21:47;;;;;;;14.00;8.25;;;;;;;0.79;56.71;93001.34;2034778;70;20147;-71
2021/04/16 01:24:24;;;;;;;12.57;8.80;;;;;;;1.01;56.87;93005.59;2034675;70;20612;-70
2021/04/16 01:26:50;;;;;;;12.88;8.40;;;;;;;1.00;56.74;93002.06;2035397;70;20208;-71
2021/04/16 01:29:17;;;;;;;11.43;8.13;;;;;;;1.02;56.58;93004.31;2035213;70;20175;-70
2021/04/16 01:31:49;;;;;;;10.05;7.57;;;;;;;0.82;56.82;93003.00;2034658;70;20148;-70
2021/04/16 01:34:28;;;;;;;11.65;8.23;;;;;;;0.85;57.12;92992.88;2035361;70;20600;-70
2021/04/16 01:36:57;;;;;;;14.02;7.50;;;;;;;1.02;56.62;92993.97;2035058;70;20199;-71
2021/04/16 01:39:25;;;;;;;12.65;7.60;;;;;;;1.09;56.16;93003.63;2035188;70;20160;-71
2021/04/16 01:41:52;;;;;;;10.75;7.43;;;;;;;0.95;56.47;93000.16;2035028;70;20258;-71
2021/04/16 01:44:21;;;;;;;10.73;7.65;;;;;;;0.99;56.43;92991.53;2034913;70;20262;-71
2021/04/16 01:46:57;;;;;;;12.73;7.50;;;;;;;0.83;57.26;92979.56;2035140;70;20172;-71
2021/04/16 01:49:30;;;;;;;11.32;7.50;;;;;;;0.74;56.94;92977.28;2035013;70;20208;-71
2021/04/16 01:51:57;;;;;;;12.93;7.68;;;;;;;0.86;57.06;92981.25;2034464;70;20168;-71
2021/04/16 01:54:32;;;;;;;12.82;8.02;;;;;;;0.90;57.61;92978.13;2035119;70;20251;-71
2021/04/16 01:57:08;;;;;;;10.88;7.32;;;;;;;0.68;57.62;92977.38;2035179;70;20183;-70
2021/04/16 01:59:37;;;;;;;13.32;7.63;;;;;;;0.76;58.23;92978.19;2034971;70;20160;-71
2021/04/16 02:02:05;;;;;;;12.00;7.60;;;;;;;0.69;58.02;92981.66;2035170;70;20231;-72
2021/04/16 02:04:31;;;;;;;11.55;7.40;;;;;;;0.44;58.29;92967.38;2035476;70;20156;-72
2021/04/16 02:06:57;;;;;;;14.60;8.77;;;;;;;0.71;56.97;92976.31;2034740;70;20182;-72
2021/04/16 02:09:28;;;;;;;11.38;8.10;;;;;;;0.64;57.43;92971.47;2035276;70;20512;-72
2021/04/16 02:11:55;;;;;;;11.77;8.02;;;;;;;0.57;57.43;92969.34;2035280;70;20164;-72
2021/04/16 02:14:24;;;;;;;12.10;8.02;;;;;;;0.59;58.06;92975.06;2035139;70;20148;-72
2021/04/16 02:16:52;;;;;;;11.57;7.55;;;;;;;0.60;56.45;92970.31;2034738;70;20144;-72
2021/04/16 02:19:18;;;;;;;13.00;7.45;;;;;;;0.50;58.14;92970.00;2035280;70;20156;-72
2021/04/16 02:21:44;;;;;;;13.15;7.70;;;;;;;0.38;57.51;92963.25;2035300;70;20243;-71
2021/04/16 02:24:11;;;;;;;11.68;7.68;;;;;;;0.45;58.02;92962.56;2035223;70;20645;-72
2021/04/16 02:26:38;;;;;;;11.25;7.25;;;;;;;0.35;57.14;92969.84;2035262;70;20156;-72
2021/04/16 02:29:08;;;;;;;14.15;7.05;;;;;;;0.38;56.89;92966.03;2035366;70;20631;-72
2021/04/16 02:31:35;;;;;;;10.00;6.75;;;;;;;0.23;56.69;92972.16;2035125;70;20144;-72
2021/04/16 02:34:01;;;;;;;10.88;7.65;;;;;;;0.28;57.40;92976.81;2035219;70;20151;-72
2021/04/16 02:36:27;;;;;;;13.60;7.53;;;;;;;0.35;56.98;92956.75;2035335;70;20155;-72
2021/04/16 02:38:54;;;;;;;13.48;7.30;;;;;;;0.20;56.99;92965.66;2035213;70;20147;-71
2021/04/16 02:41:22;;;;;;;13.07;7.65;;;;;;;0.36;56.45;92963.03;2035220;70;20600;-72
2021/04/16 02:43:48;;;;;;;10.30;7.25;;;;;;;0.21;56.05;92969.16;2034595;70;20148;-72
2021/04/16 02:46:13;;;;;;;11.80;7.10;;;;;;;0.30;56.44;92965.19;2035060;70;20144;-71
2021/04/16 02:48:39;;;;;;;11.90;7.63;;;;;;;0.24;56.50;92959.78;2035270;70;20132;-71
2021/04/16 02:51:05;;;;;;;12.02;7.50;;;;;;;0.10;56.63;92963.88;2034905;70;20271;-71
2021/04/16 02:53:31;;;;;;;12.02;7.20;;;;;;;0.08;57.69;92969.19;2035229;70;20692;-71
2021/04/16 02:55:57;;;;;;;10.88;7.57;;;;;;;-0.12;56.26;92965.84;2035220;70;20624;-71
2021/04/16 02:58:22;;;;;;;10.70;7.15;;;;;;;-0.06;56.77;92963.69;2035186;70;20231;-71
2021/04/16 03:00:48;;;;;;;10.23;7.07;;;;;;;-0.15;56.73;92958.59;2035072;70;20136;-72
2021/04/16 03:03:13;;;;;;;11.65;7.75;;;;;;;-0.20;57.14;92959.44;2035190;70;20227;-72
2021/04/16 03:05:39;;;;;;;10.82;7.97;;;;;;;-0.13;57.98;92966.38;2035137;70;20156;-72
2021/04/16 03:08:05;;;;;;;11.35;7.78;;;;;;;-0.05;57.69;92961.66;2034760;70;20159;-72
2021/04/16 03:10:33;;;;;;;14.23;7.40;;;;;;;-0.21;57.49;92965.53;2035141;70;20213;-72
2021/04/16 03:12:59;;;;;;;12.15;7.68;;;;;;;-0.12;57.66;92963.06;2034667;70;20197;-72
2021/04/16 03:15:24;;;;;;;11.52;7.32;;;;;;;-0.21;57.99;92968.31;2035083;70;20248;-71
2021/04/16 03:17:50;;;;;;;10.82;7.50;;;;;;;-0.13;58.55;92955.31;2035193;70;20527;-71
2021/04/16 03:20:19;;;;;;;14.40;8.10;;;;;;;-0.34;57.63;92955.97;2035129;70;20164;-71
2021/04/16 03:22:45;;;;;;;16.27;7.75;;;;;;;-0.30;58.53;92963.94;2035115;70;20243;-71
2021/04/16 03:25:12;;;;;;;10.25;7.25;;;;;;;-0.26;57.16;92964.38;2035261;70;20627;-72
2021/04/16 03:27:38;;;;;;;10.93;7.45;;;;;;;-0.28;57.94;92964.88;2035249;70;20198;-72
2021/04/16 03:30:10;;;;;;;13.52;7.80;;;;;;;-0.34;58.40;92960.75;2034969;70;20144;-72
2021/04/16 03:32:35;;;;;;;11.50;7.55;;;;;;;-0.34;57.57;92960.75;2035091;70;20159;-71
2021/04/16 03:35:02;;;;;;;13.18;7.47;;;;;;;-0.39;57.59;92959.59;2035081;70;20152;-71
2021/04/16 03:37:27;;;;;;;10.43;6.88;;;;;;;-0.41;58.26;92953.09;2035114;70;20148;-71
2021/04/16 03:39:53;;;;;;;9.45;6.85;;;;;;;-0.32;57.54;92956.19;2035091;70;20147;-71
2021/04/16 03:42:18;;;;;;;11.82;7.20;;;;;;;-0.50;57.49;92957.06;2035211;70;20152;-72
2021/04/16 03:44:44;;;;;;;12.25;7.28;;;;;;;-0.61;57.90;92958.00;2034890;70;20159;-71
2021/04/16 03:47:10;;;;;;;10.27;7.03;;;;;;;-0.66;56.26;92955.34;2035080;70;20148;-71
2021/04/16 03:49:35;;;;;;;11.20;6.75;;;;;;;-0.44;57.79;92960.44;2035079;70;20160;-71
2021/04/16 03:52:03;;;;;;;10.85;7.25;;;;;;;-0.48;57.70;92967.59;2035059;70;20132;-72
2021/04/16 03:54:31;;;;;;;11.45;6.60;;;;;;;-0.64;57.34;92963.84;2035082;70;20152;-71
2021/04/16 03:56:57;;;;;;;10.40;7.05;;;;;;;-0.75;57.43;92961.31;2035176;70;20156;-72
2021/04/16 03:59:24;;;;;;;12.15;7.82;;;;;;;-0.77;58.22;92964.59;2034964;70;20148;-72
2021/04/16 04:01:51;;;;;;;13.02;7.57;;;;;;;-0.72;57.16;92966.53;2035261;70;20146;-71
2021/04/16 04:04:22;;;;;;;13.85;7.40;;;;;;;-0.79;58.61;92959.59;2034991;70;20259;-71
2021/04/16 04:06:49;;;;;;;15.48;9.50;;;;;;;-0.78;57.99;92963.88;2035028;70;20223;-71
2021/04/16 04:09:15;;;;;;;15.65;8.23;;;;;;;-1.06;58.74;92964.34;2034992;70;20140;-72
2021/04/16 04:11:41;;;;;;;17.20;10.65;;;;;;;-0.90;59.91;92968.09;2035164;70;20179;-71
2021/04/16 04:14:07;;;;;;;48.97;27.88;;;;;;;-0.89;59.34;92974.38;2035102;70;20188;-72
2021/04/16 04:16:59;;;;;;;34.15;18.67;;;;;;;-0.81;59.31;92964.91;2034930;70;20159;-72
2021/04/16 04:19:27;;;;;;;20.02;11.63;;;;;;;-0.73;58.58;92978.88;2035052;70;20164;-72
2021/04/16 04:21:55;;;;;;;22.75;14.18;;;;;;;-0.82;58.25;92982.03;2035044;70;20184;-72
2021/04/16 04:24:21;;;;;;;23.67;14.52;;;;;;;-1.11;60.63;92967.94;2034978;70;20159;-71
2021/04/16 04:26:48;;;;;;;24.42;14.15;;;;;;;-1.13;60.70;92978.06;2035123;70;20244;-72
2021/04/16 04:29:16;;;;;;;26.02;13.65;;;;;;;-1.23;60.52;92979.75;2034989;70;20166;-71
2021/04/16 04:31:48;;;;;;;35.88;17.75;;;;;;;-0.90;59.86;92975.66;2035031;70;20262;-70
2021/04/16 04:34:25;;;;;;;24.63;13.23;;;;;;;-0.99;60.79;92985.09;2034446;70;20136;-71
2021/04/16 04:36:54;;;;;;;30.45;17.27;;;;;;;-0.90;59.55;92983.94;2035109;70;20204;-71
2021/04/16 04:39:22;;;;;;;37.50;19.98;;;;;;;-0.81;60.17;92984.28;2035015;70;20156;-71
2021/04/16 04:41:48;;;;;;;31.48;17.58;;;;;;;-0.92;60.23;92978.94;2034994;70;20300;-71
2021/04/16 04:44:14;;;;;;;31.40;17.42;;;;;;;-0.74;60.48;92973.84;2034849;70;20156;-72
2021/04/16 04:46:40;;;;;;;34.10;17.75;;;;;;;-0.79;60.27;92978.94;2034962;70;20239;-71
2021/04/16 04:49:07;;;;;;;27.88;15.55;;;;;;;-0.90;60.26;92981.91;2034979;70;20148;-71
2021/04/16 04:51:33;;;;;;;26.85;15.18;;;;;;;-1.29;61.11;92985.34;2034945;70;20187;-71
2021/04/16 04:53:59;;;;;;;29.92;16.45;;;;;;;-1.05;61.47;92982.44;2034946;70;20206;-71
2021/04/16 04:56:24;;;;;;;39.50;21.42;;;;;;;-0.84;60.49;92977.03;2035106;70;20604;-71
2021/04/16 04:58:50;;;;;;;36.30;19.05;;;;;;;-0.71;58.81;92981.09;2034834;70;20154;-71
2021/04/16 05:01:16;;;;;;;41.05;22.00;;;;;;;-0.83;59.51;92986.06;2034832;70;20224;-71
2021/04/16 05:03:41;;;;;;;41.70;20.25;;;;;;;-0.85;59.53;92985.88;2034925;70;20628;-71
2021/04/16 05:06:07;;;;;;;39.05;20.30;;;;;;;-0.73;59.46;92991.91;2034799;70;20168;-71
2021/04/16 05:08:33;;;;;;;37.38;20.77;;;;;;;-0.85;59.41;92985.88;2034884;70;20700;-71
2021/04/16 05:11:00;;;;;;;37.67;19.40;;;;;;;-0.67;58.80;92990.56;2034909;70;20235;-71
2021/04/16 05:13:26;;;;;;;14.82;10.70;;;;;;;-0.49;54.20;92982.69;2035029;70;20147;-71
2021/04/16 05:15:52;;;;;;;17.65;9.82;;;;;;;-0.49;54.85;92982.69;2034836;70;20220;-71
2021/04/16 05:18:17;;;;;;;23.42;11.88;;;;;;;-0.74;56.87;92984.91;2034889;70;20516;-71
2021/04/16 05:20:43;;;;;;;27.45;11.55;;;;;;;-0.46;56.32;92992.66;2034888;70;20239;-72
2021/04/16 05:23:09;;;;;;;19.15;8.30;;;;;;;-0.52;54.77;92990.75;2034865;70;20146;-72
2021/04/16 05:25:34;;;;;;;18.27;9.63;;;;;;;-0.64;56.12;93000.56;2034904;70;20151;-71
2021/04/16 05:28:00;;;;;;;18.95;9.88;;;;;;;-0.55;55.71;92993.84;2034998;70;20148;-71
2021/04/16 05:30:26;;;;;;;53.63;25.65;;;;;;;-0.55;54.33;92996.59;2034219;70;20631;-72
2021/04/16 05:32:53;;;;;;;18.25;10.45;;;;;;;-0.37;51.84;92998.50;2034997;70;20141;-71
2021/04/16 05:35:19;;;;;;;21.88;11.30;;;;;;;-0.28;50.51;92992.56;2035091;70;20570;-72
2021/04/16 05:37:44;;;;;;;35.17;16.63;;;;;;;-0.29;49.91;92990.31;2034826;70;20160;-71
2021/04/16 05:40:11;;;;;;;62.42;27.42;;;;;;;-0.19;50.23;92990.63;2034828;70;20140;-72
2021/04/16 05:42:37;;;;;;;19.48;11.73;;;;;;;-0.19;50.14;92985.09;2034846;70;20148;-71
2021/04/16 05:45:04;;;;;;;10.80;7.10;;;;;;;-0.27;48.91;92998.84;2034633;70;20156;-71
2021/04/16 05:47:31;;;;;;;10.75;7.40;;;;;;;-0.21;48.83;93004.28;2034872;70;20151;-72
2021/04/16 05:49:57;;;;;;;11.82;6.72;;;;;;;0.09;49.01;92995.59;2034965;70;20183;-72
2021/04/16 05:52:23;;;;;;;16.90;9.50;;;;;;;0.04;47.92;92993.69;2034814;70;20490;-72
2021/04/16 05:54:49;;;;;;;16.15;7.88;;;;;;;-0.01;47.88;92995.28;2034785;70;20591;-71
2021/04/16 05:57:15;;;;;;;14.00;6.43;;;;;;;0.10;47.68;93000.59;2034813;70;20597;-71
2021/04/16 05:59:42;;;;;;;11.43;7.10;;;;;;;0.11;47.96;93004.13;2034691;70;20144;-71
2021/04/16 06:02:27;;;;;;;15.38;6.95;;;;;;;-0.26;47.92;92998.31;2034271;70;20235;-71
2021/04/16 06:04:53;;;;;;;9.57;7.47;;;;;;;0.07;48.21;93001.66;2034195;70;20592;-71
2021/04/16 06:07:20;;;;;;;13.73;8.85;;;;;;;0.18;47.52;93006.97;2034855;70;20243;-72
2021/04/16 06:09:47;;;;;;;12.02;7.28;;;;;;;0.26;46.93;93004.28;2034986;70;20532;-72
2021/04/16 06:12:13;;;;;;;13.32;6.93;;;;;;;0.36;46.75;93007.34;2035309;70;20239;-71
2021/04/16 06:14:41;;;;;;;16.33;8.00;;;;;;;0.46;46.96;93009.13;2035172;70;20227;-72
2021/04/16 06:17:07;;;;;;;13.73;7.78;;;;;;;0.52;46.72;93006.25;2035285;70;20200;-72
2021/04/16 06:19:33;;;;;;;10.80;6.80;;;;;;;0.60;46.79;93006.31;2035245;70;20184;-72
2021/04/16 06:21:58;;;;;;;10.77;6.75;;;;;;;0.53;46.64;92998.66;2035393;70;20145;-72
2021/04/16 06:24:24;;;;;;;14.80;7.38;;;;;;;0.37;46.75;92995.00;2035463;70;20140;-72
2021/04/16 06:26:49;;;;;;;16.48;9.40;;;;;;;0.42;47.25;92991.38;2035377;70;20179;-72
2021/04/16 06:29:15;;;;;;;11.13;7.00;;;;;;;0.34;45.90;92996.06;2035230;70;20150;-72
2021/04/16 06:31:42;;;;;;;14.82;8.85;;;;;;;0.60;46.11;92990.44;2035254;70;20156;-72
2021/04/16 06:34:07;;;;;;;32.53;19.25;;;;;;;0.62;45.86;92998.19;2035250;70;20144;-72
2021/04/16 06:36:33;;;;;;;28.33;14.77;;;;;;;0.71;45.56;92992.19;2035221;70;20170;-72
2021/04/16 06:38:59;;;;;;;12.70;7.97;;;;;;;0.49;45.02;92990.69;2035225;70;20292;-72
2021/04/16 06:41:30;;;;;;;16.35;8.27;;;;;;;1.26;46.81;92987.31;2035302;70;20238;-72
2021/04/16 06:44:00;;;;;;;15.02;8.50;;;;;;;1.65;45.96;92985.53;2035107;70;20157;-73
2021/04/16 06:46:32;;;;;;;13.48;7.63;;;;;;;1.96;45.72;92994.00;2035053;70;20156;-72
2021/04/16 06:49:03;;;;;;;25.48;13.85;;;;;;;2.93;45.17;92985.03;2035146;70;20581;-72
2021/04/16 06:51:31;;;;;;;16.00;9.05;;;;;;;3.14;42.25;92982.09;2034706;70;20148;-72
2021/04/16 06:54:00;;;;;;;10.52;6.95;;;;;;;2.94;40.85;92978.94;2035124;70;20167;-72
2021/04/16 06:56:32;;;;;;;11.75;7.15;;;;;;;3.43;41.53;92977.06;2035127;70;20151;-72
2021/04/16 06:59:07;;;;;;;12.68;7.00;;;;;;;3.47;41.43;92980.22;2035168;70;20592;-72
2021/04/16 07:01:42;;;;;;;17.85;7.65;;;;;;;4.30;40.67;92978.53;2035104;70;20148;-73
2021/04/16 07:04:19;;;;;;;11.30;7.13;;;;;;;4.02;40.01;92976.78;2034580;70;20159;-73
2021/04/16 07:06:45;;;;;;;11.45;6.90;;;;;;;4.37;39.62;92975.00;2035216;70;20231;-72
2021/04/16 07:09:14;;;;;;;11.30;7.35;;;;;;;4.27;40.01;92974.84;2035256;70;20270;-72
2021/04/16 07:11:47;;;;;;;10.02;7.13;;;;;;;5.17;37.94;92976.19;2035308;70;20144;-73
2021/04/16 07:14:42;;;;;;;15.10;7.82;;;;;;;5.07;37.93;92964.94;2035189;70;20140;-73
2021/04/16 07:17:14;;;;;;;13.70;8.63;;;;;;;4.99;37.62;92967.75;2035303;70;20184;-73
2021/04/16 07:19:40;;;;;;;14.32;8.20;;;;;;;5.22;38.09;92969.66;2035211;70;20132;-74
2021/04/16 07:22:37;;;;;;;15.73;8.10;;;;;;;4.22;38.22;92973.00;2035106;70;20140;-73
2021/04/16 07:25:24;;;;;;;11.98;7.93;;;;;;;6.02;37.36;92988.16;2034693;70;20152;-74
2021/04/16 07:27:56;;;;;;;13.43;7.40;;;;;;;6.36;36.66;92976.97;2034695;70;20143;-73
2021/04/16 07:30:42;;;;;;;11.82;7.25;;;;;;;6.58;36.36;92971.69;2035139;70;20151;-73
2021/04/16 07:33:25;;;;;;;10.88;7.40;;;;;;;6.91;35.55;92977.03;2035148;70;20173;-74
2021/04/16 07:35:51;;;;;;;;;;;;;;;6.35;35.88;92977.53;2035309;70;20164;-73
2021/04/16 07:38:30;;;;;;;11.95;7.47;;;;;;;6.41;36.54;92974.50;2035174;70;20056;-74
2021/04/16 07:41:16;;;;;;;11.13;6.80;;;;;;;7.40;34.35;92970.34;2035365;70;20574;-74
2021/04/16 07:43:48;;;;;;;12.88;6.38;;;;;;;7.84;33.97;92961.78;2034506;70;20148;-74
2021/04/16 07:46:26;;;;;;;9.88;6.28;;;;;;;7.74;34.72;92963.78;2034469;70;20556;-74
2021/04/16 07:48:53;;;;;;;10.32;7.07;;;;;;;7.60;33.54;92968.34;2035243;70;20140;-73
2021/04/16 07:51:31;;;;;;;10.23;6.70;;;;;;;8.05;33.48;92963.28;2035141;70;20200;-74
2021/04/16 07:54:33;;;;;;;9.77;6.40;;;;;;;9.01;30.67;92956.88;2035240;70;20163;-74
2021/04/16 07:57:17;;;;;;;9.70;6.55;;;;;;;9.86;31.48;92961.28;2035242;70;20152;-74
2021/04/16 07:59:59;;;;;;;9.45;6.68;;;;;;;10.05;30.89;92957.63;2035079;70;20172;-73
2021/04/16 08:02:34;;;;;;;8.25;6.55;;;;;;;9.82;31.42;92966.63;2035179;70;20136;-75
2021/04/16 08:05:29;;;;;;;11.00;7.22;;;;;;;8.20;31.08;92951.78;2035260;70;20152;-76
2021/04/16 08:08:17;;;;;;;18.75;12.13;;;;;;;9.68;30.33;92949.53;2035130;70;20179;-75
2021/04/16 08:11:04;;;;;;;10.10;7.03;;;;;;;10.92;29.99;92952.06;2035096;70;20199;-76
2021/04/16 08:13:33;;;;;;;10.48;7.00;;;;;;;9.56;30.12;92945.91;2034222;70;20156;-73
2021/04/16 08:16:15;;;;;;;9.13;7.35;;;;;;;10.61;28.41;92948.63;2034950;70;20152;-74
2021/04/16 08:18:44;;;;;;;18.42;11.32;;;;;;;10.16;30.52;92942.88;2035193;70;20148;-72
2021/04/16 08:21:20;;;;;;;20.83;12.48;;;;;;;9.68;29.84;92953.09;2035121;70;20258;-73
2021/04/16 08:23:51;;;;;;;7.72;6.30;;;;;;;9.84;29.49;92947.81;2035057;70;20171;-76
2021/04/16 08:26:21;;;;;;;8.75;7.13;;;;;;;10.06;28.72;92945.03;2035003;70;20164;-75
2021/04/16 08:28:57;;;;;;;11.02;7.30;;;;;;;10.76;27.60;92951.00;2034986;70;20235;-75
2021/04/16 08:31:34;;;;;;;10.45;7.30;;;;;;;11.28;27.01;92943.69;2035008;70;20228;-74
2021/04/16 08:34:10;;;;;;;9.70;7.47;;;;;;;10.92;28.05;92942.88;2034961;70;20155;-74
2021/04/16 08:36:39;;;;;;;8.95;6.85;;;;;;;10.38;27.49;92944.38;2034466;70;20586;-73
2021/04/16 08:39:20;;;;;;;9.45;7.20;;;;;;;9.91;27.79;92934.91;2031718;70;20148;-72
2021/04/16 08:41:53;;;;;;;9.88;6.85;;;;;;;10.84;28.51;92937.44;2034958;70;20208;-73
2021/04/16 08:44:20;;;;;;;10.20;7.90;;;;;;;12.73;27.69;92933.94;2034776;70;20231;-74
2021/04/16 08:46:49;;;;;;;10.57;8.02;;;;;;;10.06;28.63;92937.31;2034422;70;20158;-73
2021/04/16 08:49:23;;;;;;;9.93;7.38;;;;;;;12.76;25.95;92929.16;2034950;70;20147;-73
2021/04/16 08:52:00;;;;;;;9.50;6.82;;;;;;;12.46;25.84;92939.44;2034917;70;20160;-73
2021/04/16 08:54:32;;;;;;;10.10;7.03;;;;;;;13.43;25.43;92924.38;2034992;70;20235;-74
2021/04/16 08:57:08;;;;;;;7.82;6.40;;;;;;;13.45;26.52;92923.75;2035068;70;20164;-74
2021/04/16 08:59:52;;;;;;;10.27;6.00;;;;;;;12.95;24.34;92928.06;2034822;70;20140;-74
2021/04/16 09:02:29;;;;;;;8.07;6.30;;;;;;;10.88;25.71;92925.72;2035013;70;20228;-74
2021/04/16 09:05:10;;;;;;;8.43;6.15;;;;;;;13.41;24.55;92927.09;2034929;70;20144;-74
2021/04/16 09:07:40;;;;;;;7.53;5.85;;;;;;;14.60;23.12;92921.88;2034927;70;20156;-74
2021/04/16 09:10:27;;;;;;;9.82;6.60;;;;;;;12.41;24.48;92923.63;2034886;70;20215;-74
2021/04/16 09:12:59;;;;;;;8.25;6.47;;;;;;;13.46;24.16;92917.47;2034879;70;20159;-73
2021/04/16 09:15:24;;;;;;;7.07;6.20;;;;;;;13.17;24.78;92914.44;2034841;70;20192;-74
2021/04/16 09:17:53;;;;;;;7.90;6.10;;;;;;;15.24;23.85;92915.75;2034912;70;20220;-74
2021/04/16 09:20:23;;;;;;;9.05;5.97;;;;;;;13.45;24.99;92912.44;2034364;70;20536;-74
2021/04/16 09:22:54;;;;;;;9.07;7.13;;;;;;;14.62;24.00;92914.22;2035027;70;20623;-73
2021/04/16 09:25:31;;;;;;;8.00;5.82;;;;;;;14.10;22.97;92907.34;2034882;70;20286;-73
2021/04/16 09:28:22;;;;;;;7.68;6.20;;;;;;;14.17;22.20;92902.72;2034867;70;20239;-74
2021/04/16 09:31:02;;;;;;;9.20;6.43;;;;;;;14.75;22.56;92901.34;2034753;70;20176;-74
2021/04/16 09:33:42;;;;;;;7.97;6.78;;;;;;;14.19;23.92;92889.41;2034858;70;20545;-75
2021/04/16 09:36:26;;;;;;;12.05;7.30;;;;;;;14.17;23.46;92891.41;2034868;70;20171;-75
2021/04/16 09:38:52;;;;;;;7.43;6.13;;;;;;;15.25;23.23;92896.63;2034902;70;20147;-75
2021/04/16 09:41:22;;;;;;;9.35;7.40;;;;;;;15.86;23.36;92895.88;2034948;70;20171;-75
2021/04/16 09:43:54;;;;;;;7.78;6.50;;;;;;;15.92;21.47;92881.94;2034939;70;20158;-75
2021/04/16 09:46:25;;;;;;;9.13;7.18;;;;;;;16.47;23.35;92884.28;2035204;70;20175;-75
2021/04/16 09:48:52;;;;;;;12.27;6.95;;;;;;;18.13;22.27;92880.78;2035420;70;20568;-75
2021/04/16 09:51:47;;;;;;;8.63;6.90;;;;;;;16.92;20.77;92884.06;2034939;70;20563;-75
2021/04/16 09:54:13;;;;;;;10.93;7.40;;;;;;;17.71;23.09;92880.69;2038313;70;20203;-74
2021/04/16 09:57:01;;;;;;;7.55;6.28;;;;;;;18.61;20.67;92872.50;2038477;70;20140;-74
2021/04/16 09:59:33;;;;;;;9.18;6.20;;;;;;;19.97;19.14;92878.16;2038353;70;20687;-73
2021/04/16 10:02:11;;;;;;;8.57;6.28;;;;;;;16.63;20.72;92872.84;2037984;70;20156;-74
2021/04/16 10:04:56;;;;;;;7.63;5.90;;;;;;;18.60;20.81;92871.03;2038434;70;20158;-75
2021/04/16 10:07:33;;;;;;;7.35;6.05;;;;;;;19.65;17.84;92866.53;2038523;70;20128;-75
2021/04/16 10:10:19;;;;;;;8.88;5.60;;;;;;;18.25;18.00;92861.28;2038485;70;20239;-74
2021/04/16 10:12:45;;;;;;;6.60;5.90;;;;;;;18.35;20.30;92863.03;2038470;70;20235;-72
2021/04/16 10:15:19;;;;;;;7.47;5.70;;;;;;;18.66;20.16;92861.94;2038486;70;20144;-76
2021/04/16 10:17:54;;;;;;;6.70;5.90;;;;;;;21.22;18.95;92868.63;2038618;70;20252;-75
2021/04/16 10:20:19;;;;;;;7.53;6.43;;;;;;;19.09;18.14;92849.09;2038409;70;20552;-74
2021/04/16 10:22:58;;;;;;;7.25;6.20;;;;;;;19.67;18.37;92855.91;2037916;70;20156;-73
2021/04/16 10:38:03;;;;;;;8.05;5.47;;;;;;;22.98;15.33;92841.44;2038494;70;20174;-74
2021/04/16 12:38:41;;;;;;;2.85;2.50;;;;;;;34.59;7.61;92742.25;2038363;70;20639;-72
2021/04/16 12:41:18;;;;;;;2.50;2.30;;;;;;;34.17;7.54;92737.56;2038207;70;20140;-72
2021/04/16 12:43:45;;;;;;;2.10;1.95;;;;;;;32.15;8.14;92734.25;2038022;70;20219;-72
2021/04/16 12:46:14;;;;;;;3.15;2.20;;;;;;;33.44;8.60;92737.28;2038076;70;20258;-71
2021/04/16 12:48:40;;;;;;;3.03;2.15;;;;;;;35.60;6.82;92734.00;2038170;70;20182;-72
2021/04/16 12:51:07;;;;;;;2.88;2.40;;;;;;;35.61;6.61;92735.47;2038239;70;20215;-72
2021/04/16 12:53:32;;;;;;;2.83;2.03;;;;;;;37.43;6.78;92732.50;2038180;70;20168;-71
2021/04/16 12:55:58;;;;;;;2.85;2.22;;;;;;;32.91;7.45;92715.91;2038119;70;20212;-72
2021/04/16 12:58:30;;;;;;;2.72;2.38;;;;;;;34.18;7.88;92721.47;2038229;70;20152;-72
2021/04/16 13:00:57;;;;;;;3.35;2.30;;;;;;;29.90;8.77;92712.97;2037997;70;20562;-72
2021/04/16 13:03:50;;;;;;;2.25;2.10;;;;;;;33.70;7.66;92719.09;2038178;70;20247;-71
2021/04/16 13:06:23;;;;;;;;;;;;;;;33.21;7.59;92714.44;2037893;70;20589;-71
2021/04/16 13:08:49;;;;;;;3.72;2.15;;;;;;;33.43;8.41;92706.63;2038098;70;20048;-71
2021/04/16 13:11:16;;;;;;;2.45;2.10;;;;;;;35.46;7.04;92717.63;2038108;70;20135;-72
2021/04/16 13:13:41;;;;;;;2.65;2.10;;;;;;;36.98;6.59;92718.88;2038213;70;20159;-72
2021/04/16 13:16:08;;;;;;;2.33;2.13;;;;;;;29.00;8.83;92710.91;2037846;70;20187;-72
2021/04/16 13:18:40;;;;;;;2.00;1.90;;;;;;;34.11;7.18;92704.13;2038182;70;20164;-72
2021/04/16 13:21:15;;;;;;;4.57;2.20;;;;;;;29.90;9.69;92692.66;2038592;70;20128;-72
2021/04/16 13:23:40;;;;;;;3.85;2.42;;;;;;;34.65;7.62;92697.50;2038596;70;20152;-72
2021/04/16 13:26:06;;;;;;;2.17;1.98;;;;;;;36.98;6.15;92696.13;2038538;70;20572;-73
2021/04/16 13:28:33;;;;;;;3.22;2.15;;;;;;;27.44;9.12;92687.06;2038478;70;20252;-70
2021/04/16 13:30:59;;;;;;;4.15;1.98;;;;;;;32.50;7.81;92678.91;2038397;70;20168;-73
2021/04/16 13:33:25;;;;;;;2.47;2.20;;;;;;;28.42;8.99;92670.06;2038587;70;20148;-73
2021/04/16 13:35:55;;;;;;;2.65;2.10;;;;;;;29.77;9.08;92675.38;2038001;70;20171;-74
2021/04/16 13:38:27;;;;;;;2.88;2.00;;;;;;;30.35;8.87;92673.22;2039460;70;20147;-72
2021/04/16 13:40:56;;;;;;;2.95;2.10;;;;;;;32.72;8.06;92665.34;2035253;70;20175;-72
2021/04/16 13:43:22;;;;;;;2.40;1.92;;;;;;;32.64;6.91;92661.13;2038533;70;20164;-71
2021/04/16 13:45:49;;;;;;;2.83;2.40;;;;;;;28.04;9.38;92657.22;2037733;70;20194;-68
2021/04/16 13:48:16;;;;;;;3.47;2.38;;;;;;;26.97;9.77;92643.78;2037974;70;20241;-72
2021/04/16 13:50:43;;;;;;;3.60;2.50;;;;;;;25.20;10.78;92635.47;2038415;70;20143;-73
2021/04/16 13:53:10;;;;;;;2.63;2.30;;;;;;;29.98;8.71;92643.22;2037049;70;20266;-73
2021/04/16 13:55:36;;;;;;;4.13;2.20;;;;;;;28.04;8.91;92631.19;2037605;70;20609;-72